Time;durP1;ratioP1;P1;durP2;ratioP2;P2;SDS_P1;SDS_P2;PMS_P1;PMS_P2;Temp;Humidity;BMP_temperature;BMP_pressure;BME280_temperature;BME280_humidity;BME280_pressure;Samples;Min_cycle;Max_cycle;Signal;HPM_P1;HPM_P2
2022/11/10 00:00:33;;;;;;;1999.90;621.42;;;14.40;99.90;;;;;;5157062;27;20509;-87
2022/11/10 00:03:04;;;;;;;1999.90;466.80;;;14.50;99.90;;;;;;5156768;27;20475;-89
2022/11/10 00:05:31;;;;;;;1961.80;267.33;;;14.50;99.90;;;;;;5157302;27;20074;-87
2022/11/10 00:08:00;;;;;;;1999.90;694.55;;;14.60;99.90;;;;;;5138434;27;20085;-86
2022/11/10 00:10:26;;;;;;;1999.90;403.13;;;14.50;99.90;;;;;;5138483;27;20090;-88
2022/11/10 00:12:52;;;;;;;1999.90;313.88;;;14.40;99.90;;;;;;5156974;27;20078;-88
2022/11/10 00:18:03;;;;;;;1999.90;230.48;;;14.60;99.90;;;;;;5141269;27;20456;-88
2022/11/10 00:20:29;;;;;;;1999.90;442.73;;;14.40;99.90;;;;;;5137951;27;20383;-87
2022/11/10 00:22:55;;;;;;;1999.90;277.30;;;14.40;99.90;;;;;;5156085;27;20046;-87
2022/11/10 00:25:21;;;;;;;1999.90;254.50;;;14.50;99.90;;;;;;5121177;27;20391;-87
2022/11/10 00:27:48;;;;;;;1999.90;824.17;;;14.40;99.90;;;;;;5156318;27;20039;-87
2022/11/10 00:30:13;;;;;;;1974.18;160.25;;;14.50;99.90;;;;;;5138169;27;20134;-87
2022/11/10 00:32:39;;;;;;;1999.90;809.17;;;14.40;99.90;;;;;;5136975;27;20043;-87
2022/11/10 00:35:06;;;;;;;1999.90;351.17;;;14.40;99.90;;;;;;5156322;27;20043;-87
2022/11/10 00:37:32;;;;;;;1999.90;439.83;;;14.50;99.90;;;;;;5155646;27;20497;-87
2022/11/10 00:39:58;;;;;;;1999.90;210.60;;;14.40;99.90;;;;;;5155526;27;20058;-86
2022/11/10 00:42:24;;;;;;;1999.90;810.75;;;14.50;99.90;;;;;;5155952;27;20490;-87
2022/11/10 00:44:49;;;;;;;1959.80;782.50;;;14.40;99.90;;;;;;5156438;27;20050;-87
2022/11/10 00:47:15;;;;;;;1999.90;999.90;;;14.70;99.90;;;;;;5136552;27;20431;-83
2022/11/10 00:49:41;;;;;;;1999.90;303.38;;;14.40;99.90;;;;;;5155400;27;20039;-82
2022/11/10 00:52:06;;;;;;;1999.90;265.10;;;14.40;99.90;;;;;;5153731;27;20038;-86
2022/11/10 00:54:32;;;;;;;1974.75;307.25;;;14.50;99.90;;;;;;5137423;27;20055;-87
2022/11/10 00:56:58;;;;;;;1999.90;332.77;;;14.40;99.90;;;;;;5136549;27;20072;-87
2022/11/10 00:59:23;;;;;;;1999.90;213.50;;;14.80;99.90;;;;;;5155765;27;20130;-86
2022/11/10 01:01:49;;;;;;;1999.90;216.35;;;14.40;99.90;;;;;;5154948;27;20062;-86
2022/11/10 01:04:15;;;;;;;1999.90;218.73;;;14.40;99.90;;;;;;5155855;27;20412;-87
2022/11/10 01:06:40;;;;;;;1999.90;798.88;;;14.50;99.90;;;;;;5136406;27;20095;-87
2022/11/10 01:09:06;;;;;;;1999.90;805.05;;;14.40;99.90;;;;;;5155530;27;20053;-87
2022/11/10 01:11:32;;;;;;;1999.90;316.95;;;14.50;99.90;;;;;;5136691;27;20061;-87
2022/11/10 01:13:57;;;;;;;1662.43;108.57;;;14.50;99.90;;;;;;5155440;27;20483;-88
2022/11/10 01:16:30;;;;;;;1999.90;599.80;;;14.50;99.90;;;;;;5137619;27;20105;-83
2022/11/10 01:18:58;;;;;;;1999.90;223.32;;;14.40;99.90;;;;;;5155188;27;20191;-86
2022/11/10 01:21:24;;;;;;;;;;;14.50;99.90;;;;;;5155236;27;20089;-88
2022/11/10 01:23:50;;;;;;;1999.90;327.48;;;14.50;99.90;;;;;;5153721;27;19926;-89
2022/11/10 01:26:17;;;;;;;1999.90;470.73;;;14.60;99.90;;;;;;5135495;27;20038;-88
2022/11/10 01:28:43;;;;;;;1999.90;826.05;;;14.30;99.90;;;;;;5135722;27;20137;-85
2022/11/10 01:31:18;;;;;;;1999.90;815.30;;;14.30;99.90;;;;;;5154915;27;20046;-87
2022/11/10 01:33:44;;;;;;;1999.90;322.02;;;14.30;99.90;;;;;;5136336;27;20584;-88
2022/11/10 01:36:11;;;;;;;1999.90;451.73;;;14.30;99.90;;;;;;5136591;27;20133;-87
2022/11/10 01:38:39;;;;;;;1999.90;442.33;;;14.30;99.90;;;;;;5155377;27;20045;-88
2022/11/10 01:41:07;;;;;;;1999.90;311.70;;;14.30;99.90;;;;;;5154789;27;20058;-87
2022/11/10 01:43:33;;;;;;;1999.90;500.58;;;14.50;99.90;;;;;;5154468;27;20320;-88
2022/11/10 01:46:05;;;;;;;1999.90;257.98;;;14.40;99.90;;;;;;5154778;27;20046;-88
2022/11/10 01:48:51;;;;;;;1999.90;830.10;;;14.40;99.90;;;;;;5136425;27;20391;-88
2022/11/10 01:51:31;;;;;;;1999.90;369.75;;;14.30;99.90;;;;;;5154654;27;20046;-88
2022/11/10 01:54:09;;;;;;;1999.90;222.57;;;15.40;99.90;;;;;;5154635;27;20395;-86
2022/11/10 01:56:40;;;;;;;1999.90;402.73;;;14.40;99.90;;;;;;5154820;27;20058;-86
2022/11/10 01:59:12;;;;;;;1999.90;247.48;;;14.30;99.90;;;;;;5135578;27;20050;-87
2022/11/10 02:01:38;;;;;;;1999.90;208.20;;;14.40;99.90;;;;;;5153795;27;20049;-86
2022/11/10 02:04:12;;;;;;;1999.90;373.98;;;14.30;99.90;;;;;;5136282;27;20243;-88
2022/11/10 02:06:41;;;;;;;1999.90;835.17;;;14.30;99.90;;;;;;5154044;27;20039;-82
2022/11/10 02:09:07;;;;;;;1999.90;380.10;;;14.20;99.90;;;;;;5154296;27;20051;-89
2022/11/10 02:11:34;;;;;;;1999.90;361.92;;;14.20;99.90;;;;;;5153795;27;20047;-88
2022/11/10 02:14:00;;;;;;;1999.90;410.20;;;14.40;99.90;;;;;;5135922;27;20464;-86
2022/11/10 02:16:26;;;;;;;1999.90;244.95;;;14.30;99.90;;;;;;5154444;27;20435;-80
2022/11/10 02:18:52;;;;;;;1999.90;362.33;;;14.40;99.90;;;;;;5135879;27;20103;-88
2022/11/10 02:21:19;;;;;;;1999.90;665.92;;;14.50;99.90;;;;;;5135433;27;20034;-89
2022/11/10 02:23:46;;;;;;;1999.90;567.97;;;14.40;99.90;;;;;;5154099;27;20050;-88
2022/11/10 02:26:15;;;;;;;1999.90;523.60;;;14.30;99.90;;;;;;5154130;27;20284;-86
2022/11/10 02:28:40;;;;;;;1999.90;444.45;;;14.40;99.90;;;;;;5153611;27;20471;-88
2022/11/10 02:31:08;;;;;;;1999.90;696.28;;;14.50;99.90;;;;;;5135547;27;20049;-87
2022/11/10 02:33:34;;;;;;;1999.90;463.08;;;14.40;99.90;;;;;;5151614;27;20490;-84
2022/11/10 02:36:00;;;;;;;1999.90;461.65;;;14.50;99.90;;;;;;5152944;27;20046;-89
2022/11/10 02:38:26;;;;;;;1999.90;336.58;;;14.50;99.90;;;;;;5153574;27;20058;-87
2022/11/10 02:40:51;;;;;;;1999.90;556.45;;;14.50;99.90;;;;;;5134958;27;20059;-88
2022/11/10 02:43:18;;;;;;;1999.90;593.42;;;14.50;99.90;;;;;;5118685;27;20053;-89
2022/11/10 02:45:44;;;;;;;1999.90;470.02;;;14.60;99.90;;;;;;5153334;27;20394;-89
2022/11/10 02:48:11;;;;;;;1999.90;337.95;;;14.60;99.90;;;;;;5153660;27;20043;-89
2022/11/10 02:50:37;;;;;;;1999.90;482.90;;;14.60;99.90;;;;;;5153703;27;20082;-88
2022/11/10 02:53:03;;;;;;;1999.90;360.73;;;14.50;99.90;;;;;;5153106;27;20121;-88
2022/11/10 02:55:29;;;;;;;1999.90;464.70;;;14.60;99.90;;;;;;5153337;27;20426;-88
2022/11/10 02:57:55;;;;;;;1999.90;403.27;;;14.50;99.90;;;;;;5152918;27;20130;-88
2022/11/10 03:00:21;;;;;;;1999.90;328.88;;;14.60;99.90;;;;;;5153297;27;20053;-88
2022/11/10 03:02:47;;;;;;;1999.90;234.63;;;14.70;99.90;;;;;;5153800;27;20035;-88
2022/11/10 03:05:13;;;;;;;1999.90;429.10;;;14.70;99.90;;;;;;5134540;27;20100;-88
2022/11/10 03:07:39;;;;;;;1999.90;321.67;;;14.70;99.90;;;;;;5154066;27;20043;-88
2022/11/10 03:10:05;;;;;;;1999.90;242.50;;;14.80;99.90;;;;;;5153158;27;20047;-83
2022/11/10 03:12:31;;;;;;;1999.90;817.92;;;14.80;99.90;;;;;;5153925;27;20039;-89
2022/11/10 03:14:57;;;;;;;1999.90;387.15;;;14.70;99.90;;;;;;5152536;27;20046;-90
2022/11/10 03:17:23;;;;;;;1999.90;301.85;;;14.80;99.90;;;;;;5118098;27;20137;-88
2022/11/10 03:19:49;;;;;;;1965.57;226.75;;;14.90;99.90;;;;;;5153228;27;20082;-87
2022/11/10 03:22:15;;;;;;;1999.90;363.88;;;14.70;99.90;;;;;;5153183;27;20043;-88
2022/11/10 03:24:40;;;;;;;1999.90;286.20;;;14.60;99.90;;;;;;5136369;27;20399;-87
2022/11/10 03:27:06;;;;;;;1999.90;343.25;;;14.70;99.90;;;;;;5136514;27;20053;-85
2022/11/10 03:29:32;;;;;;;1999.90;264.88;;;14.60;99.90;;;;;;5153139;27;20050;-89
2022/11/10 03:31:57;;;;;;;1999.90;483.77;;;14.70;99.90;;;;;;5150795;27;20042;-85
2022/11/10 03:34:23;;;;;;;1999.90;444.25;;;14.70;99.90;;;;;;5134834;27;20043;-90
2022/11/10 03:36:49;;;;;;;1999.90;520.85;;;14.70;99.90;;;;;;5134443;27;20054;-90
2022/11/10 03:39:15;;;;;;;1999.90;230.13;;;14.60;99.90;;;;;;5153405;27;20047;-88
2022/11/10 03:41:41;;;;;;;1999.90;396.35;;;14.60;99.90;;;;;;5134198;27;20057;-89
2022/11/10 03:44:06;;;;;;;1999.90;217.52;;;14.60;99.90;;;;;;5153262;27;20053;-90
2022/11/10 03:46:32;;;;;;;1999.90;202.20;;;14.60;99.90;;;;;;5152242;27;20047;-89
2022/11/10 03:48:58;;;;;;;1999.90;818.80;;;14.60;99.90;;;;;;5134560;27;20046;-90
2022/11/10 03:51:23;;;;;;;1999.90;328.42;;;14.70;99.90;;;;;;5134644;27;20043;-89
2022/11/10 03:53:49;;;;;;;1999.90;379.10;;;14.60;99.90;;;;;;5135391;27;20506;-87
2022/11/10 03:56:15;;;;;;;1999.90;223.23;;;14.60;99.90;;;;;;5133975;27;20050;-85
2022/11/10 03:58:41;;;;;;;1999.90;821.65;;;14.70;99.90;;;;;;5153137;27;20054;-90
2022/11/10 04:01:07;;;;;;;1999.90;325.38;;;15.40;99.90;;;;;;5152500;27;20518;-82
2022/11/10 04:03:33;;;;;;;1999.90;281.77;;;14.70;99.90;;;;;;5152953;27;20042;-82
2022/11/10 04:08:58;;;;;;;1999.90;319.10;;;14.70;99.90;;;;;;5153315;27;20050;-88
2022/11/10 04:16:53;;;;;;;1999.90;344.90;;;14.70;99.90;;;;;;5152635;27;20046;-88
2022/11/10 04:19:19;;;;;;;1999.90;247.30;;;14.90;99.90;;;;;;5133781;27;20043;-89
2022/11/10 04:21:45;;;;;;;1999.90;441.60;;;14.90;99.90;;;;;;5153083;27;20069;-87
2022/11/10 04:24:10;;;;;;;1999.90;403.77;;;14.80;99.90;;;;;;5156604;27;20046;-88
2022/11/10 04:26:37;;;;;;;1999.90;352.15;;;15.00;99.90;;;;;;5137922;27;20047;-86
2022/11/10 04:29:08;;;;;;;1999.90;384.02;;;14.80;99.90;;;;;;5155662;27;20050;-88
2022/11/10 04:31:36;;;;;;;1999.90;379.98;;;14.80;99.90;;;;;;5155206;27;20053;-80
2022/11/10 04:34:03;;;;;;;1999.90;512.53;;;14.90;99.90;;;;;;5155865;27;20563;-88
2022/11/10 04:36:30;;;;;;;1999.90;353.33;;;15.00;99.90;;;;;;5155897;27;20066;-87
2022/11/10 04:38:56;;;;;;;1999.90;637.85;;;15.00;99.90;;;;;;5156047;27;20083;-87
2022/11/10 04:41:24;;;;;;;1999.90;648.72;;;15.00;99.90;;;;;;5155574;27;20101;-83
2022/11/10 04:43:50;;;;;;;1999.90;999.90;;;14.90;99.90;;;;;;5156649;27;20042;-86
2022/11/10 04:46:30;;;;;;;1992.43;229.88;;;15.00;99.90;;;;;;5155074;27;20054;-85
2022/11/10 04:48:57;;;;;;;1999.90;330.17;;;15.10;99.90;;;;;;5156412;27;20439;-88
2022/11/10 04:51:25;;;;;;;1999.90;742.75;;;15.00;99.90;;;;;;5155001;27;20499;-89
2022/11/10 04:53:51;;;;;;;1999.90;803.85;;;15.20;99.90;;;;;;5156087;27;20039;-89
2022/11/10 04:56:21;;;;;;;1999.90;820.78;;;15.10;99.90;;;;;;5155920;27;20046;-88
2022/11/10 04:58:47;;;;;;;1999.90;337.23;;;15.00;99.90;;;;;;5156051;27;20068;-84
2022/11/10 05:01:16;;;;;;;1999.90;301.10;;;15.20;99.90;;;;;;5155713;27;20047;-88
2022/11/10 05:03:42;;;;;;;1999.90;202.40;;;15.20;99.90;;;;;;5155141;27;20045;-87
2022/11/10 05:06:08;;;;;;;1999.90;190.63;;;15.10;99.90;;;;;;5154427;27;20089;-87
2022/11/10 05:08:35;;;;;;;1999.90;189.75;;;15.10;99.90;;;;;;5137466;27;20054;-86
2022/11/10 05:11:00;;;;;;;1999.90;587.70;;;15.10;99.90;;;;;;5136448;27;20176;-86
2022/11/10 05:13:26;;;;;;;1999.90;999.90;;;15.10;99.90;;;;;;5136399;27;20491;-84
2022/11/10 05:15:52;;;;;;;1999.90;999.90;;;15.10;99.90;;;;;;5137654;27;20050;-86
2022/11/10 05:18:18;;;;;;;1999.90;158.13;;;15.20;99.90;;;;;;5155458;27;20054;-84
2022/11/10 05:20:44;;;;;;;1954.53;144.18;;;15.00;99.90;;;;;;5136909;27;20056;-85
2022/11/10 05:25:53;;;;;;;1999.90;189.82;;;15.10;99.90;;;;;;5136474;27;20122;-84
2022/11/10 05:28:19;;;;;;;1676.45;112.68;;;15.20;99.90;;;;;;5136493;27;20107;-83
2022/11/10 05:30:45;;;;;;;1999.90;789.78;;;15.40;99.90;;;;;;5155180;27;20046;-87
2022/11/10 05:33:10;;;;;;;1994.00;183.27;;;16.60;99.90;;;;;;5117157;27;20046;-86
2022/11/10 05:35:36;;;;;;;1971.03;121.43;;;15.20;99.90;;;;;;5136627;27;20456;-86
2022/11/10 05:38:03;;;;;;;1999.90;821.25;;;15.10;99.90;;;;;;5135839;27;20515;-85
2022/11/10 05:40:31;;;;;;;1999.90;152.30;;;15.10;99.90;;;;;;5136026;27;20062;-84
2022/11/10 05:42:57;;;;;;;1999.90;149.18;;;16.50;99.90;;;;;;5154462;27;20092;-85
2022/11/10 05:45:26;;;;;;;1999.90;999.90;;;15.10;99.90;;;;;;5155160;27;20074;-86
2022/11/10 05:47:53;;;;;;;1999.90;601.00;;;15.20;99.90;;;;;;5136890;27;20554;-88
2022/11/10 05:50:20;;;;;;;1999.90;814.80;;;15.20;99.90;;;;;;5153179;27;20125;-85
2022/11/10 05:52:48;;;;;;;1999.90;524.20;;;15.30;99.90;;;;;;5120005;27;20034;-88
2022/11/10 05:55:16;;;;;;;1989.25;188.77;;;15.20;99.90;;;;;;5136969;27;20035;-87
2022/11/10 05:57:43;;;;;;;1999.90;481.85;;;15.40;99.90;;;;;;5136367;27;20047;-89
2022/11/10 06:00:10;;;;;;;1999.90;356.58;;;15.30;99.90;;;;;;5154870;27;20050;-87
2022/11/10 06:02:35;;;;;;;1999.90;999.90;;;15.40;99.90;;;;;;5153613;27;20433;-88
2022/11/10 06:05:02;;;;;;;1999.90;806.22;;;15.40;99.90;;;;;;5135572;27;20095;-85
2022/11/10 06:07:27;;;;;;;1999.90;349.88;;;15.30;99.90;;;;;;5153954;27;20399;-86
2022/11/10 06:09:53;;;;;;;1999.90;212.82;;;15.40;99.90;;;;;;5155113;27;20061;-89
2022/11/10 06:12:19;;;;;;;1999.90;232.18;;;15.40;99.90;;;;;;5153824;27;20370;-89
2022/11/10 06:14:45;;;;;;;1999.90;674.15;;;15.30;99.90;;;;;;5164995;27;20047;-88
2022/11/10 06:17:10;;;;;;;1999.90;817.78;;;15.40;99.90;;;;;;5167657;27;20047;-84
2022/11/10 06:19:36;;;;;;;1816.38;135.07;;;15.30;99.90;;;;;;5151019;27;20070;-88
2022/11/10 06:22:02;;;;;;;1990.05;291.98;;;15.30;99.90;;;;;;5170082;27;20049;-90
2022/11/10 06:24:27;;;;;;;1999.90;681.83;;;16.50;99.90;;;;;;5170075;27;20061;-88
2022/11/10 06:26:53;;;;;;;1999.90;801.72;;;15.30;99.90;;;;;;5168095;27;20039;-88
2022/11/10 06:29:18;;;;;;;1999.90;118.03;;;15.40;99.90;;;;;;5150647;27;20042;-86
2022/11/10 06:31:44;;;;;;;1999.90;308.05;;;15.40;99.90;;;;;;5158902;27;20088;-85
2022/11/10 06:34:10;;;;;;;1999.90;206.15;;;15.30;99.90;;;;;;5155495;27;20050;-88
2022/11/10 06:36:37;;;;;;;1956.18;190.73;;;15.30;99.90;;;;;;5135998;27;20039;-85
2022/11/10 06:39:02;;;;;;;1999.90;177.40;;;15.40;99.90;;;;;;5134775;27;20058;-86
2022/11/10 06:41:28;;;;;;;1999.90;184.65;;;15.40;99.90;;;;;;5154585;27;20058;-86
2022/11/10 06:43:54;;;;;;;1999.90;803.75;;;15.70;99.90;;;;;;5136762;27;20043;-90
2022/11/10 06:46:20;;;;;;;1999.90;817.10;;;15.40;99.90;;;;;;5154536;27;20410;-89
2022/11/10 06:48:46;;;;;;;1999.90;812.53;;;15.40;99.90;;;;;;5119310;27;20056;-90
2022/11/10 06:51:12;;;;;;;1999.90;602.65;;;15.30;99.90;;;;;;5154302;27;20051;-90
2022/11/10 06:53:37;;;;;;;1989.20;194.30;;;15.40;99.90;;;;;;5154279;27;20121;-88
2022/11/10 06:56:03;;;;;;;1999.90;582.65;;;15.30;99.90;;;;;;5136203;27;20039;-89
2022/11/10 06:58:29;;;;;;;1999.90;816.50;;;15.30;99.90;;;;;;5153925;27;20053;-90
2022/11/10 07:00:59;;;;;;;1974.15;289.02;;;14.30;99.90;;;;;;5135998;27;20081;-90
2022/11/10 07:03:25;;;;;;;1999.90;999.90;;;15.40;99.90;;;;;;5135751;27;20039;-89
2022/11/10 07:05:51;;;;;;;1999.90;619.72;;;15.40;99.90;;;;;;5135740;27;20046;-88
2022/11/10 07:08:16;;;;;;;1999.90;801.40;;;15.40;99.90;;;;;;5154363;27;20054;-88
2022/11/10 07:10:44;;;;;;;1999.90;999.90;;;15.30;99.90;;;;;;5154218;27;20054;-91
2022/11/10 07:13:10;;;;;;;1999.90;327.33;;;15.40;99.90;;;;;;5154509;27;20429;-90
2022/11/10 07:15:36;;;;;;;1999.90;398.20;;;15.40;99.90;;;;;;5153695;27;20487;-87
2022/11/10 07:18:03;;;;;;;1999.90;815.53;;;15.50;99.90;;;;;;5136109;27;20062;-90
2022/11/10 07:20:30;;;;;;;1956.53;273.38;;;15.40;99.90;;;;;;5117837;27;20089;-90
2022/11/10 07:23:00;;;;;;;1999.90;835.90;;;15.40;99.90;;;;;;5154081;27;20049;-91
2022/11/10 07:25:28;;;;;;;1999.90;114.25;;;15.50;99.90;;;;;;5153914;27;20047;-90
2022/11/10 07:27:55;;;;;;;1956.97;171.73;;;15.60;99.90;;;;;;5154219;27;20047;-90
2022/11/10 07:30:21;;;;;;;1988.07;142.68;;;15.60;99.90;;;;;;5153660;27;20050;-90
2022/11/10 07:32:56;;;;;;;1999.90;789.42;;;15.50;99.90;;;;;;5133038;27;20116;-90
2022/11/10 07:35:21;;;;;;;1999.90;999.90;;;15.60;99.90;;;;;;5153433;27;20517;-88
2022/11/10 07:37:47;;;;;;;1999.90;803.08;;;15.40;99.90;;;;;;5154136;27;20082;-90
2022/11/10 07:40:13;;;;;;;1954.38;325.77;;;15.50;99.90;;;;;;5153942;27;20107;-89
2022/11/10 07:42:39;;;;;;;1999.90;785.90;;;15.50;99.90;;;;;;5134772;27;20126;-89
2022/11/10 07:45:06;;;;;;;1999.90;999.90;;;15.40;99.90;;;;;;5153841;27;20080;-90
2022/11/10 07:47:31;;;;;;;1999.90;999.90;;;15.40;99.90;;;;;;5153664;27;20042;-89
2022/11/10 07:49:57;;;;;;;1566.10;109.95;;;15.50;99.90;;;;;;5153821;27;20431;-89
2022/11/10 07:52:23;;;;;;;1924.25;124.93;;;15.60;99.90;;;;;;5135136;27;20497;-88
2022/11/10 07:54:48;;;;;;;1878.72;166.02;;;15.50;99.90;;;;;;5154242;27;20405;-89
2022/11/10 07:57:14;;;;;;;1951.85;785.58;;;15.60;99.90;;;;;;5155464;27;20042;-90
2022/11/10 07:59:40;;;;;;;1999.90;999.90;;;15.60;99.90;;;;;;5157689;27;20486;-89
2022/11/10 08:02:11;;;;;;;1950.55;778.25;;;15.50;99.90;;;;;;5139155;27;20531;-90
2022/11/10 08:04:36;;;;;;;1960.68;160.48;;;15.60;99.90;;;;;;5157410;27;20130;-87
2022/11/10 08:07:03;;;;;;;1999.90;185.38;;;15.50;99.90;;;;;;5139313;27;20130;-87
2022/11/10 08:09:28;;;;;;;1999.90;778.42;;;15.60;99.90;;;;;;5139228;27;20050;-90
2022/11/10 08:11:54;;;;;;;1999.90;999.90;;;15.50;99.90;;;;;;5157456;27;20046;-89
2022/11/10 08:14:20;;;;;;;1999.90;239.38;;;15.50;99.90;;;;;;5139252;27;20123;-88
2022/11/10 08:16:46;;;;;;;1999.90;999.90;;;15.40;99.90;;;;;;5138951;27;20050;-88
2022/11/10 08:19:11;;;;;;;1999.90;999.90;;;15.40;99.90;;;;;;5157627;27;20474;-88
2022/11/10 08:21:37;;;;;;;1989.30;774.78;;;15.40;99.90;;;;;;5156465;27;20071;-87
2022/11/10 08:24:03;;;;;;;1999.90;999.90;;;15.50;99.90;;;;;;5157517;27;20092;-88
2022/11/10 08:26:29;;;;;;;1999.90;777.35;;;15.60;99.90;;;;;;5138512;27;20047;-89
2022/11/10 08:28:54;;;;;;;1999.90;785.97;;;15.50;99.90;;;;;;5157484;27;20047;-89
2022/11/10 08:31:20;;;;;;;1861.18;101.75;;;15.70;99.90;;;;;;5157452;27;20046;-89
2022/11/10 08:33:46;;;;;;;1774.50;107.00;;;15.80;99.90;;;;;;5154537;27;20039;-92
2022/11/10 08:36:11;;;;;;;1999.90;298.20;;;15.80;99.90;;;;;;5138101;27;20398;-89
2022/11/10 08:38:37;;;;;;;1999.90;333.30;;;15.90;99.90;;;;;;5157013;27;20043;-87
2022/11/10 08:41:03;;;;;;;1999.90;608.55;;;16.00;99.90;;;;;;5157094;27;20061;-89
2022/11/10 08:43:29;;;;;;;1999.90;999.90;;;16.20;99.90;;;;;;5138561;27;20168;-89
2022/11/10 08:45:58;;;;;;;1666.88;529.97;;;16.30;99.90;;;;;;5156507;27;20406;-89
2022/11/10 08:48:24;;;;;;;1999.90;808.10;;;16.30;99.90;;;;;;5156892;27;20099;-86
2022/11/10 08:50:50;;;;;;;1917.15;549.22;;;16.30;99.90;;;;;;5137821;27;20039;-88
2022/11/10 08:53:22;;;;;;;1810.00;69.28;;;16.50;99.90;;;;;;5138724;27;20043;-89
2022/11/10 08:55:48;;;;;;;1356.78;514.90;;;16.30;99.90;;;;;;5156340;27;20065;-87
2022/11/10 08:58:20;;;;;;;1999.90;999.90;;;16.30;99.90;;;;;;5156923;27;20042;-88
2022/11/10 09:00:46;;;;;;;1999.90;999.90;;;16.30;99.90;;;;;;5138253;27;20054;-88
2022/11/10 09:03:22;;;;;;;1999.90;999.90;;;16.30;99.90;;;;;;5156494;27;20039;-87
2022/11/10 09:05:49;;;;;;;1999.90;999.90;;;16.20;99.90;;;;;;5137532;27;20227;-87
2022/11/10 09:08:15;;;;;;;1808.20;530.38;;;16.20;99.90;;;;;;5156204;27;20049;-87
2022/11/10 09:10:46;;;;;;;1999.90;999.90;;;16.30;99.90;;;;;;5137874;27;20129;-88
2022/11/10 09:13:14;;;;;;;1798.40;106.53;;;16.30;99.90;;;;;;5156239;27;20090;-87
2022/11/10 09:15:41;;;;;;;1999.90;168.82;;;16.30;99.90;;;;;;5156053;27;20129;-87
2022/11/10 09:18:08;;;;;;;1999.90;426.27;;;16.40;99.90;;;;;;5138000;27;20046;-87
2022/11/10 09:20:35;;;;;;;1892.13;547.63;;;16.40;99.90;;;;;;5137441;27;20159;-88
2022/11/10 09:23:06;;;;;;;1999.90;999.90;;;16.40;99.90;;;;;;5137809;27;20043;-88
2022/11/10 09:25:32;;;;;;;1999.90;999.90;;;16.60;99.90;;;;;;5137758;27;20046;-85
2022/11/10 09:27:58;;;;;;;1999.90;999.90;;;16.60;79.40;;;;;;5156442;27;20093;-88
2022/11/10 09:30:24;;;;;;;1999.90;999.90;;;16.60;99.90;;;;;;5156451;27;20447;-87
2022/11/10 09:32:55;;;;;;;1999.90;999.90;;;16.60;1.00;;;;;;5136787;27;20050;-86
2022/11/10 09:35:21;;;;;;;1999.90;999.90;;;16.70;1.00;;;;;;5156703;27;20041;-86
2022/11/10 09:37:47;;;;;;;1999.90;999.90;;;16.70;99.90;;;;;;5137834;27;20357;-87
2022/11/10 09:40:20;;;;;;;1999.90;999.90;;;16.70;99.90;;;;;;5156280;27;20046;-88
2022/11/10 09:42:47;;;;;;;1999.90;999.90;;;16.80;99.90;;;;;;5112860;28;20215;-87
2022/11/10 09:45:19;;;;;;;1999.90;999.90;;;17.00;1.00;;;;;;5113430;28;20062;-88
2022/11/10 09:47:56;;;;;;;1999.90;999.90;;;17.10;1.00;;;;;;5114274;28;20051;-88
2022/11/10 09:50:49;;;;;;;1999.90;999.90;;;17.10;99.90;;;;;;5113831;28;20483;-86
2022/11/10 09:53:22;;;;;;;1999.90;999.90;;;17.20;99.90;;;;;;5113365;28;20169;-88
2022/11/10 09:56:06;;;;;;;1999.90;999.90;;;17.30;99.90;;;;;;5114183;28;20046;-88
2022/11/10 09:58:40;;;;;;;1999.90;999.90;;;17.40;95.00;;;;;;5114058;28;20430;-83
2022/11/10 10:01:11;;;;;;;1999.90;999.90;;;17.40;99.90;;;;;;5096052;28;20498;-87
2022/11/10 10:03:48;;;;;;;1999.90;999.90;;;17.50;98.40;;;;;;5113650;28;20384;-89
2022/11/10 10:06:17;;;;;;;1999.90;999.90;;;17.60;26.60;;;;;;5113841;28;20058;-88
2022/11/10 10:09:10;;;;;;;1999.90;999.90;;;17.70;1.00;;;;;;5113937;28;20083;-87
2022/11/10 10:11:36;;;;;;;1999.90;999.90;;;17.80;99.90;;;;;;5112756;28;20070;-88
2022/11/10 10:14:10;;;;;;;1999.90;999.90;;;17.90;99.90;;;;;;5113860;28;20487;-89
2022/11/10 10:17:04;;;;;;;1999.90;999.90;;;17.90;99.50;;;;;;5113419;28;20134;-86
2022/11/10 10:19:45;;;;;;;1999.90;999.90;;;18.00;1.00;;;;;;5113195;28;20044;-86
2022/11/10 10:22:37;;;;;;;1999.90;999.90;;;17.90;1.00;;;;;;5113750;28;20043;-85
2022/11/10 10:25:10;;;;;;;1999.90;999.90;;;18.00;1.00;;;;;;5113648;28;20051;-88
2022/11/10 10:27:39;;;;;;;1999.90;999.90;;;17.90;99.90;;;;;;5113394;28;20040;-88
2022/11/10 10:30:15;;;;;;;1999.90;999.90;;;17.90;99.90;;;;;;5113850;28;20395;-86
2022/11/10 10:32:41;;;;;;;1999.90;999.90;;;18.00;99.90;;;;;;5110201;28;20086;-87
2022/11/10 10:35:13;;;;;;;1999.90;999.90;;;17.90;99.90;;;;;;5112237;28;20085;-88
2022/11/10 10:37:44;;;;;;;1999.90;999.90;;;17.90;99.90;;;;;;5113090;28;20079;-85
2022/11/10 10:40:20;;;;;;;1999.90;999.90;;;17.90;99.90;;;;;;5112838;28;20130;-85
2022/11/10 10:42:46;;;;;;;1999.90;999.90;;;17.90;99.90;;;;;;5112817;27;20047;-87
2022/11/10 10:45:25;;;;;;;1999.90;999.90;;;18.00;99.90;;;;;;5134008;27;20051;-88
2022/11/10 10:47:53;;;;;;;1999.90;999.90;;;18.00;99.90;;;;;;5133570;27;20043;-89
2022/11/10 10:50:22;;;;;;;1999.90;999.90;;;18.10;99.90;;;;;;5133557;27;20126;-87
2022/11/10 10:53:06;;;;;;;1999.90;999.90;;;18.10;99.90;;;;;;5133659;27;20043;-86
2022/11/10 10:55:33;;;;;;;1999.90;999.90;;;18.10;69.80;;;;;;5133521;27;20171;-88
2022/11/10 10:58:04;;;;;;;1999.90;999.90;;;18.10;99.90;;;;;;5132548;27;20046;-88
2022/11/10 11:00:30;;;;;;;1999.90;999.90;;;18.20;99.90;;;;;;5133580;27;20075;-88
2022/11/10 11:03:05;;;;;;;1999.90;999.90;;;18.20;30.20;;;;;;5133226;27;20283;-87
2022/11/10 11:05:31;;;;;;;1999.90;999.90;;;18.20;28.50;;;;;;5132316;27;20107;-87
2022/11/10 11:08:01;;;;;;;1999.90;999.90;;;18.30;8.30;;;;;;5133214;27;20416;-88
2022/11/10 11:10:32;;;;;;;1999.90;999.90;;;18.20;9.70;;;;;;5133377;27;20464;-88
2022/11/10 11:13:20;;;;;;;1999.90;999.90;;;18.10;1.00;;;;;;5133435;27;20392;-86
2022/11/10 11:16:06;;;;;;;1999.90;999.90;;;18.00;16.90;;;;;;5133393;27;20043;-87
2022/11/10 11:18:37;;;;;;;1999.90;999.90;;;17.90;95.90;;;;;;5133672;27;20143;-86
2022/11/10 11:21:32;;;;;;;1999.90;999.90;;;17.90;96.90;;;;;;5131718;28;20055;-87
2022/11/10 11:24:19;;;;;;;1999.90;999.90;;;17.80;98.00;;;;;;5133373;27;20078;-87
2022/11/10 11:27:04;;;;;;;1999.90;999.90;;;17.80;99.90;;;;;;5131675;28;20044;-85
2022/11/10 11:30:21;;;;;;;1999.90;999.90;;;17.90;99.90;;;;;;5133423;27;20043;-86
2022/11/10 11:33:17;;;;;;;1999.90;999.90;;;18.00;50.30;;;;;;5079433;28;20173;-88
2022/11/10 11:36:21;;;;;;;1999.90;999.90;;;18.00;75.80;;;;;;5136454;27;20504;-88
2022/11/10 11:39:11;;;;;;;1999.90;999.90;;;18.00;58.20;;;;;;5137359;27;20050;-88
2022/11/10 11:41:46;;;;;;;1999.90;999.90;;;18.00;99.90;;;;;;5145612;27;20054;-88
2022/11/10 11:44:49;;;;;;;1999.90;999.90;;;18.00;42.60;;;;;;5156764;27;20050;-87
2022/11/10 11:47:36;;;;;;;1999.90;999.90;;;18.00;73.30;;;;;;5157681;27;20054;-86
2022/11/10 11:50:29;;;;;;;1999.90;999.90;;;18.10;1.00;;;;;;5157293;27;20530;-87
2022/11/10 11:53:13;;;;;;;1999.90;999.90;;;18.20;1.00;;;;;;5138564;27;20100;-86
2022/11/10 11:56:10;;;;;;;1999.90;999.90;;;18.20;1.00;;;;;;5138377;27;20042;-85
2022/11/10 11:58:38;;;;;;;1999.90;999.90;;;18.20;1.00;;;;;;5156671;27;20095;-85
2022/11/10 12:01:23;;;;;;;1999.90;999.90;;;18.20;1.00;;;;;;5156014;27;20039;-87
2022/11/10 12:03:52;;;;;;;1999.90;999.90;;;18.20;1.00;;;;;;5138307;27;20091;-88
2022/11/10 12:06:29;;;;;;;1999.90;999.90;;;18.20;1.00;;;;;;5157344;27;20061;-87
2022/11/10 12:09:16;;;;;;;1999.90;999.90;;;18.20;1.00;;;;;;5157573;27;20043;-86
2022/11/10 12:11:47;;;;;;;1999.90;999.90;;;18.20;1.00;;;;;;5157445;27;20487;-87
2022/11/10 12:14:13;;;;;;;1999.90;999.90;;;18.10;1.00;;;;;;5157180;27;20050;-86
2022/11/10 12:16:44;;;;;;;1999.90;999.90;;;18.10;1.00;;;;;;5157338;27;20035;-86
2022/11/10 12:19:29;;;;;;;1999.90;999.90;;;18.10;1.00;;;;;;5157590;27;20095;-86
2022/11/10 12:22:17;;;;;;;1999.90;999.90;;;18.00;1.00;;;;;;5156772;27;20528;-86
2022/11/10 12:25:04;;;;;;;1999.90;999.90;;;18.00;22.50;;;;;;5157576;27;20133;-86